createdAt,value
2022-09-13T00:04:14.984Z,1010.69
2022-09-13T00:09:15.287Z,1010.66
2022-09-13T00:14:17.560Z,1010.63
2022-09-13T00:19:13.910Z,1010.63
2022-09-13T00:24:13.203Z,1010.52
2022-09-13T00:29:11.318Z,1010.44
2022-09-13T00:34:10.642Z,1010.32
2022-09-13T00:39:10.946Z,1010.33
2022-09-13T00:44:08.232Z,1010.36
2022-09-13T00:49:08.557Z,1010.35
2022-09-13T00:54:07.849Z,1010.22
2022-09-13T00:59:07.118Z,1010.35
2022-09-13T01:04:08.698Z,1010.31
2022-09-13T01:09:06.675Z,1010.19
2022-09-13T01:14:04.751Z,1010.16
2022-09-13T01:19:05.050Z,1010.17
2022-09-13T01:24:04.357Z,1010.15
2022-09-13T01:29:02.649Z,1010.06
2022-09-13T01:34:01.950Z,1010.12
2022-09-13T01:39:01.313Z,1010.12
2022-09-13T01:44:01.637Z,1010.16
2022-09-13T01:49:00.719Z,1010.17
2022-09-13T01:53:59.065Z,1010.23
2022-09-13T01:59:00.429Z,1010.18
2022-09-13T02:03:57.557Z,1010.06
2022-09-13T02:08:56.852Z,1010.11
2022-09-13T02:13:56.163Z,1010.28
2022-09-13T02:18:55.482Z,1010.21
2022-09-13T02:23:54.802Z,1010.15
2022-09-13T02:28:54.078Z,1010.33
2022-09-13T02:33:52.396Z,1010.20
2022-09-13T02:38:53.703Z,1010.21
2022-09-13T02:43:51.985Z,1010.14
2022-09-13T02:48:52.341Z,1010.20
2022-09-13T02:53:50.472Z,1010.24
2022-09-13T02:58:49.679Z,1010.31
2022-09-13T03:03:48.881Z,1010.39
2022-09-13T03:08:49.100Z,1010.36
2022-09-13T03:13:49.193Z,1010.34
2022-09-13T03:18:47.556Z,1010.38
2022-09-13T03:23:45.641Z,1010.29
2022-09-13T03:28:45.973Z,1010.18
2022-09-13T03:33:43.253Z,1010.13
2022-09-13T03:38:43.579Z,1010.21
2022-09-13T03:43:42.873Z,1010.31
2022-09-13T03:48:43.263Z,1010.32
2022-09-13T03:53:42.363Z,1010.30
2022-09-13T03:58:40.663Z,1010.29
2022-09-13T04:03:39.965Z,1010.35
2022-09-13T04:08:39.248Z,1010.28
2022-09-13T04:13:39.593Z,1010.17
2022-09-13T04:18:38.842Z,1010.35
2022-09-13T04:23:37.149Z,1010.29
2022-09-13T04:28:36.264Z,1010.35
2022-09-13T04:33:35.569Z,1010.42
2022-09-13T04:38:34.878Z,1010.44
2022-09-13T04:43:35.168Z,1010.26
2022-09-13T04:48:32.496Z,1010.40
2022-09-13T04:53:33.583Z,1010.39
2022-09-13T04:58:32.917Z,1010.47
2022-09-13T05:03:31.197Z,1010.61
2022-09-13T05:08:31.514Z,1010.56
2022-09-13T05:13:29.785Z,1010.54
2022-09-13T05:18:29.114Z,1010.57
2022-09-13T05:23:30.427Z,1010.45
2022-09-13T05:28:27.722Z,1010.48
2022-09-13T05:33:29.024Z,1010.54
2022-09-13T05:38:30.800Z,1010.54
2022-09-13T05:43:26.659Z,1010.44
2022-09-13T05:48:24.778Z,1010.54
2022-09-13T05:53:24.095Z,1010.70
2022-09-13T05:58:25.413Z,1010.65
2022-09-13T06:03:22.732Z,1010.62
2022-09-13T06:08:21.071Z,1010.53
2022-09-13T06:13:23.225Z,1010.58
2022-09-13T06:18:22.555Z,1010.58
2022-09-13T06:23:19.857Z,1010.53
2022-09-13T06:28:21.279Z,1010.55
2022-09-13T06:33:18.443Z,1010.53
2022-09-13T06:38:18.752Z,1010.33
2022-09-13T06:43:17.135Z,1010.36
2022-09-13T06:48:16.206Z,1010.37
2022-09-13T06:53:14.491Z,1010.39
2022-09-13T06:58:14.806Z,1010.31
2022-09-13T07:03:15.143Z,1010.22
2022-09-13T07:08:14.458Z,1010.10
2022-09-13T07:13:14.732Z,1010.15
2022-09-13T07:18:14.102Z,1010.06
2022-09-13T07:23:15.168Z,1010.01
2022-09-13T07:28:11.484Z,1010.00
2022-09-13T07:33:09.602Z,1010.04
2022-09-13T07:38:08.975Z,1010.07
2022-09-13T07:43:09.143Z,1010.14
2022-09-13T07:48:07.293Z,1010.14
2022-09-13T07:53:06.604Z,1010.19
2022-09-13T07:58:07.038Z,1010.06
2022-09-13T08:03:06.237Z,1009.96
2022-09-13T08:08:05.340Z,1009.79
2022-09-13T08:13:03.691Z,1009.70
2022-09-13T08:18:02.818Z,1009.70
2022-09-13T08:23:02.160Z,1009.78
2022-09-13T08:28:02.352Z,1009.85
2022-09-13T08:33:00.509Z,1009.73
2022-09-13T08:37:58.632Z,1009.77
2022-09-13T08:42:58.797Z,1009.81
2022-09-13T08:47:56.937Z,1009.74
2022-09-13T08:52:56.088Z,1009.60
2022-09-13T08:57:56.432Z,1009.55
2022-09-13T09:02:55.580Z,1009.57
2022-09-13T09:07:55.766Z,1009.62
2022-09-13T09:12:53.865Z,1009.63
2022-09-13T09:17:55.192Z,1009.60
2022-09-13T09:22:54.510Z,1009.58
2022-09-13T09:27:51.804Z,1009.60
2022-09-13T09:32:51.123Z,1009.54
2022-09-13T09:37:51.459Z,1009.54
2022-09-13T09:42:52.762Z,1009.46
2022-09-13T09:47:50.279Z,1009.39
2022-09-13T09:52:48.374Z,1009.49
2022-09-13T09:57:47.691Z,1009.48
2022-09-13T10:02:48.070Z,1009.47
2022-09-13T10:07:46.186Z,1009.47
2022-09-13T10:12:45.523Z,1009.50
2022-09-13T10:17:44.859Z,1009.41
2022-09-13T10:22:46.006Z,1009.44
2022-09-13T10:27:45.363Z,1009.42
2022-09-13T10:32:42.545Z,1009.39
2022-09-13T10:37:41.654Z,1009.34
2022-09-13T10:42:41.933Z,1009.28
2022-09-13T10:47:41.217Z,1009.25
2022-09-13T10:52:40.473Z,1009.14
2022-09-13T10:57:40.826Z,1009.05
2022-09-13T11:02:37.939Z,1009.00
2022-09-13T11:07:37.230Z,1008.88
2022-09-13T11:12:36.553Z,1008.81
2022-09-13T11:17:37.880Z,1008.76
2022-09-13T11:22:35.146Z,1008.73
2022-09-13T11:27:34.539Z,1008.74
2022-09-13T11:32:33.746Z,1008.78
2022-09-13T11:37:32.858Z,1008.81
2022-09-13T11:42:32.206Z,1008.75
2022-09-13T11:47:32.462Z,1008.70
2022-09-13T11:52:31.626Z,1008.61
2022-09-13T11:57:29.749Z,1008.50
2022-09-13T12:02:29.131Z,1008.48
2022-09-13T12:07:29.332Z,1008.42
2022-09-13T12:12:27.657Z,1008.34
2022-09-13T12:17:27.945Z,1008.36
2022-09-13T12:22:30.713Z,1008.31
2022-09-13T12:27:25.483Z,1008.27
2022-09-13T12:32:24.808Z,1008.30
2022-09-13T12:37:25.136Z,1008.30
2022-09-13T12:42:25.283Z,1008.19
2022-09-13T12:47:24.403Z,1008.16
2022-09-13T12:52:23.706Z,1008.10
2022-09-13T12:57:21.050Z,1008.07
2022-09-13T13:02:20.434Z,1007.94
2022-09-13T13:07:19.547Z,1007.79
2022-09-13T13:12:17.852Z,1007.77
2022-09-13T13:17:18.172Z,1007.84
2022-09-13T13:22:17.462Z,1007.87
2022-09-13T13:27:17.747Z,1007.88
2022-09-13T13:32:16.030Z,1007.89
2022-09-13T13:37:15.324Z,1007.93
2022-09-13T13:42:14.636Z,1007.87
2022-09-13T13:47:15.947Z,1007.83
2022-09-13T13:52:13.270Z,1007.74
2022-09-13T13:57:12.563Z,1007.69
2022-09-13T14:02:13.877Z,1007.59
2022-09-13T14:07:19.560Z,1007.53
2022-09-13T14:12:10.424Z,1007.44
2022-09-13T14:17:10.794Z,1007.45
2022-09-13T14:22:09.885Z,1007.33
2022-09-13T14:27:09.635Z,1007.25
2022-09-13T14:32:08.422Z,1007.23
2022-09-13T14:37:05.731Z,1007.17
2022-09-13T14:42:06.142Z,1007.14
2022-09-13T14:47:05.377Z,1007.11
2022-09-13T14:52:04.502Z,1007.08
2022-09-13T14:57:04.799Z,1006.98
2022-09-13T15:02:03.286Z,1006.94
2022-09-13T15:07:02.409Z,1006.99
2022-09-13T15:12:01.747Z,1006.97
2022-09-13T15:17:00.899Z,1007.02
2022-09-13T15:22:00.014Z,1007.06
2022-09-13T15:27:01.499Z,1007.07
2022-09-13T15:32:00.675Z,1007.05
2022-09-13T15:36:59.760Z,1007.10
2022-09-13T15:41:57.030Z,1006.96
2022-09-13T15:46:57.383Z,1006.98
2022-09-13T15:51:54.514Z,1006.96
2022-09-13T15:56:54.941Z,1006.84
2022-09-13T16:01:54.125Z,1006.77
2022-09-13T16:06:54.276Z,1006.69
2022-09-13T16:11:52.571Z,1006.71
2022-09-13T16:16:51.820Z,1006.69
2022-09-13T16:21:52.017Z,1006.65
2022-09-13T16:26:50.162Z,1006.60
2022-09-13T16:31:50.363Z,1006.60
2022-09-13T16:36:48.494Z,1006.61
2022-09-13T16:41:48.642Z,1006.60
2022-09-13T16:46:48.063Z,1006.62
2022-09-13T16:51:47.186Z,1006.62
2022-09-13T16:56:45.488Z,1006.62
2022-09-13T17:01:45.866Z,1006.58
2022-09-13T17:06:44.052Z,1006.55
2022-09-13T17:11:44.372Z,1006.49
2022-09-13T17:16:42.657Z,1006.51
2022-09-13T17:21:42.938Z,1006.47
2022-09-13T17:26:44.199Z,1006.42
2022-09-13T17:31:40.574Z,1006.42
2022-09-13T17:36:39.689Z,1006.43
2022-09-13T17:41:38.972Z,1006.50
2022-09-13T17:46:38.339Z,1006.49
2022-09-13T17:51:38.491Z,1006.51
2022-09-13T17:56:40.923Z,1006.52
2022-09-13T18:01:38.104Z,1006.57
2022-09-13T18:06:35.336Z,1006.52
2022-09-13T18:11:33.482Z,1006.59
2022-09-13T18:16:34.880Z,1006.56
2022-09-13T18:21:33.042Z,1006.55
2022-09-13T18:26:32.177Z,1006.56
2022-09-13T18:31:32.703Z,1006.48
2022-09-13T18:36:30.733Z,1006.47
2022-09-13T18:41:30.083Z,1006.47
2022-09-13T18:46:30.681Z,1006.47
2022-09-13T18:51:28.727Z,1006.49
2022-09-13T18:56:28.058Z,1006.50
2022-09-13T19:01:27.267Z,1006.50
2022-09-13T19:06:26.480Z,1006.52
2022-09-13T19:11:45.846Z,1006.52
2022-09-13T19:16:25.046Z,1006.52
2022-09-13T19:21:25.191Z,1006.58
2022-09-13T19:26:23.345Z,1006.58
2022-09-13T19:31:22.668Z,1006.56
2022-09-13T19:36:21.780Z,1006.64
2022-09-13T19:41:20.990Z,1006.73
2022-09-13T19:46:20.230Z,1006.76
2022-09-13T19:51:19.445Z,1006.77
2022-09-13T19:56:18.627Z,1006.79
2022-09-13T20:01:17.859Z,1006.79
2022-09-13T20:06:18.557Z,1006.74
2022-09-13T20:11:16.319Z,1006.72
2022-09-13T20:16:15.551Z,1006.70
2022-09-13T20:21:15.795Z,1006.60
2022-09-13T20:26:14.898Z,1006.76
2022-09-13T20:31:14.407Z,1006.82
2022-09-13T20:36:12.460Z,1006.89
2022-09-13T20:41:12.529Z,1006.88
2022-09-13T20:46:11.865Z,1006.93
2022-09-13T20:51:11.015Z,1007.00
2022-09-13T20:56:10.144Z,1007.14
2022-09-13T21:01:08.501Z,1007.15
2022-09-13T21:06:07.621Z,1007.17
2022-09-13T21:11:06.729Z,1007.14
2022-09-13T21:16:06.092Z,1007.12
2022-09-13T21:21:05.245Z,1007.06
2022-09-13T21:26:04.371Z,1007.08
2022-09-13T21:31:03.862Z,1007.07
2022-09-13T21:36:05.020Z,1007.05
2022-09-13T21:41:03.164Z,1007.14
2022-09-13T21:46:01.323Z,1007.09
2022-09-13T21:51:01.518Z,1007.16
2022-09-13T21:55:59.834Z,1007.19
2022-09-13T22:00:59.199Z,1007.25
2022-09-13T22:06:00.301Z,1007.31
2022-09-13T22:10:58.584Z,1007.18
2022-09-13T22:15:57.905Z,1007.11
2022-09-13T22:20:56.206Z,1006.99
2022-09-13T22:25:55.515Z,1006.96
2022-09-13T22:30:54.715Z,1006.94
2022-09-13T22:35:53.823Z,1006.92
2022-09-13T22:40:53.139Z,1006.90
2022-09-13T22:45:53.500Z,1006.89
2022-09-13T22:50:52.656Z,1006.84
2022-09-13T22:55:51.942Z,1006.76
2022-09-13T23:00:50.346Z,1006.73
2022-09-13T23:05:51.493Z,1006.65
2022-09-13T23:10:48.818Z,1006.53
2022-09-13T23:15:48.117Z,1006.40
2022-09-13T23:20:48.422Z,1006.55
2022-09-13T23:25:46.732Z,1006.67
2022-09-13T23:30:46.040Z,1006.64
2022-09-13T23:35:46.368Z,1006.51
2022-09-13T23:40:45.700Z,1006.55
2022-09-13T23:45:44.568Z,1006.51
2022-09-13T23:50:45.250Z,1006.55
2022-09-13T23:55:43.323Z,1006.65
